sensor_id;sensor_type;location;lat;lon;timestamp;P1;durP1;ratioP1;P2;durP2;ratioP2
8419;SDS011;4247;48.550;8.822;2024-03-07T00:01:41;29.57;;;16.83;;
8419;SDS011;4247;48.550;8.822;2024-03-07T00:04:08;30.33;;;16.77;;
8419;SDS011;4247;48.550;8.822;2024-03-07T00:06:35;39.33;;;17.40;;
8419;SDS011;4247;48.550;8.822;2024-03-07T00:09:02;31.53;;;16.67;;
8419;SDS011;4247;48.550;8.822;2024-03-07T00:11:29;39.47;;;18.17;;
8419;SDS011;4247;48.550;8.822;2024-03-07T00:13:57;32.83;;;16.67;;
8419;SDS011;4247;48.550;8.822;2024-03-07T00:16:24;34.23;;;17.13;;
8419;SDS011;4247;48.550;8.822;2024-03-07T00:18:51;28.80;;;16.33;;
8419;SDS011;4247;48.550;8.822;2024-03-07T00:21:18;32.50;;;16.43;;
8419;SDS011;4247;48.550;8.822;2024-03-07T00:23:45;30.03;;;16.60;;
8419;SDS011;4247;48.550;8.822;2024-03-07T00:26:12;36.80;;;17.40;;
8419;SDS011;4247;48.550;8.822;2024-03-07T00:28:39;33.30;;;17.60;;
8419;SDS011;4247;48.550;8.822;2024-03-07T00:31:07;37.43;;;18.07;;
8419;SDS011;4247;48.550;8.822;2024-03-07T00:33:34;28.80;;;16.47;;
8419;SDS011;4247;48.550;8.822;2024-03-07T00:36:00;36.00;;;18.40;;
8419;SDS011;4247;48.550;8.822;2024-03-07T00:38:27;35.60;;;18.67;;
8419;SDS011;4247;48.550;8.822;2024-03-07T00:40:54;34.97;;;17.47;;
8419;SDS011;4247;48.550;8.822;2024-03-07T00:43:20;33.00;;;17.17;;
8419;SDS011;4247;48.550;8.822;2024-03-07T00:45:47;39.53;;;19.40;;
8419;SDS011;4247;48.550;8.822;2024-03-07T00:48:16;33.00;;;18.83;;
8419;SDS011;4247;48.550;8.822;2024-03-07T00:50:43;30.77;;;18.07;;
8419;SDS011;4247;48.550;8.822;2024-03-07T00:53:10;33.07;;;17.53;;
8419;SDS011;4247;48.550;8.822;2024-03-07T00:55:37;35.77;;;18.80;;
8419;SDS011;4247;48.550;8.822;2024-03-07T00:58:03;36.57;;;16.77;;
8419;SDS011;4247;48.550;8.822;2024-03-07T01:00:30;31.57;;;16.90;;
8419;SDS011;4247;48.550;8.822;2024-03-07T01:02:57;35.57;;;18.37;;
8419;SDS011;4247;48.550;8.822;2024-03-07T01:05:25;35.30;;;17.97;;
8419;SDS011;4247;48.550;8.822;2024-03-07T01:07:52;31.53;;;16.43;;
8419;SDS011;4247;48.550;8.822;2024-03-07T01:10:20;37.30;;;18.43;;
8419;SDS011;4247;48.550;8.822;2024-03-07T01:12:47;33.23;;;18.13;;
8419;SDS011;4247;48.550;8.822;2024-03-07T01:15:15;30.50;;;17.57;;
8419;SDS011;4247;48.550;8.822;2024-03-07T01:17:41;33.53;;;18.03;;
8419;SDS011;4247;48.550;8.822;2024-03-07T01:20:10;36.33;;;18.53;;
8419;SDS011;4247;48.550;8.822;2024-03-07T01:22:38;33.00;;;17.40;;
8419;SDS011;4247;48.550;8.822;2024-03-07T01:25:05;32.93;;;18.73;;
8419;SDS011;4247;48.550;8.822;2024-03-07T01:27:32;39.00;;;18.63;;
8419;SDS011;4247;48.550;8.822;2024-03-07T01:29:59;35.93;;;18.50;;
8419;SDS011;4247;48.550;8.822;2024-03-07T01:32:26;46.77;;;20.57;;
8419;SDS011;4247;48.550;8.822;2024-03-07T01:34:53;36.43;;;19.03;;
8419;SDS011;4247;48.550;8.822;2024-03-07T01:37:20;33.80;;;18.13;;
8419;SDS011;4247;48.550;8.822;2024-03-07T01:39:48;41.17;;;19.93;;
8419;SDS011;4247;48.550;8.822;2024-03-07T01:42:15;42.63;;;21.73;;
8419;SDS011;4247;48.550;8.822;2024-03-07T01:44:41;37.60;;;18.90;;
8419;SDS011;4247;48.550;8.822;2024-03-07T01:47:09;39.23;;;19.93;;
8419;SDS011;4247;48.550;8.822;2024-03-07T01:49:36;36.73;;;19.10;;
8419;SDS011;4247;48.550;8.822;2024-03-07T01:52:04;36.13;;;19.47;;
8419;SDS011;4247;48.550;8.822;2024-03-07T01:54:31;40.93;;;19.83;;
8419;SDS011;4247;48.550;8.822;2024-03-07T01:57:00;39.60;;;21.43;;
8419;SDS011;4247;48.550;8.822;2024-03-07T01:59:28;35.97;;;20.17;;
8419;SDS011;4247;48.550;8.822;2024-03-07T02:01:57;37.67;;;21.07;;
8419;SDS011;4247;48.550;8.822;2024-03-07T02:04:26;45.77;;;22.20;;
8419;SDS011;4247;48.550;8.822;2024-03-07T02:06:53;37.00;;;20.10;;
8419;SDS011;4247;48.550;8.822;2024-03-07T02:09:20;32.07;;;19.77;;
8419;SDS011;4247;48.550;8.822;2024-03-07T02:11:47;40.50;;;21.37;;
8419;SDS011;4247;48.550;8.822;2024-03-07T02:14:15;38.70;;;21.30;;
8419;SDS011;4247;48.550;8.822;2024-03-07T02:16:42;37.17;;;21.47;;
8419;SDS011;4247;48.550;8.822;2024-03-07T02:19:10;43.40;;;21.80;;
8419;SDS011;4247;48.550;8.822;2024-03-07T02:21:41;40.50;;;21.00;;
8419;SDS011;4247;48.550;8.822;2024-03-07T02:24:08;44.93;;;22.17;;
8419;SDS011;4247;48.550;8.822;2024-03-07T02:26:35;40.53;;;21.90;;
8419;SDS011;4247;48.550;8.822;2024-03-07T02:29:04;39.07;;;21.50;;
8419;SDS011;4247;48.550;8.822;2024-03-07T02:31:31;40.93;;;21.27;;
8419;SDS011;4247;48.550;8.822;2024-03-07T02:34:01;40.27;;;21.77;;
8419;SDS011;4247;48.550;8.822;2024-03-07T02:36:28;36.60;;;20.77;;
8419;SDS011;4247;48.550;8.822;2024-03-07T02:38:56;41.43;;;21.97;;
8419;SDS011;4247;48.550;8.822;2024-03-07T02:41:24;42.60;;;22.60;;
8419;SDS011;4247;48.550;8.822;2024-03-07T02:43:51;39.13;;;21.73;;
8419;SDS011;4247;48.550;8.822;2024-03-07T02:46:18;42.97;;;20.50;;
8419;SDS011;4247;48.550;8.822;2024-03-07T02:48:45;34.87;;;21.20;;
8419;SDS011;4247;48.550;8.822;2024-03-07T02:51:11;40.50;;;21.87;;
8419;SDS011;4247;48.550;8.822;2024-03-07T02:53:38;33.80;;;20.13;;
8419;SDS011;4247;48.550;8.822;2024-03-07T02:56:06;45.27;;;21.17;;
8419;SDS011;4247;48.550;8.822;2024-03-07T02:58:34;34.43;;;19.40;;
8419;SDS011;4247;48.550;8.822;2024-03-07T03:01:01;35.57;;;20.77;;
8419;SDS011;4247;48.550;8.822;2024-03-07T03:03:29;37.03;;;20.47;;
8419;SDS011;4247;48.550;8.822;2024-03-07T03:05:57;34.73;;;20.00;;
8419;SDS011;4247;48.550;8.822;2024-03-07T03:08:24;35.17;;;20.50;;
8419;SDS011;4247;48.550;8.822;2024-03-07T03:10:52;37.20;;;19.87;;
8419;SDS011;4247;48.550;8.822;2024-03-07T03:13:20;32.53;;;18.73;;
8419;SDS011;4247;48.550;8.822;2024-03-07T03:15:47;37.33;;;20.57;;
8419;SDS011;4247;48.550;8.822;2024-03-07T03:18:13;36.90;;;20.03;;
8419;SDS011;4247;48.550;8.822;2024-03-07T03:20:41;34.60;;;19.00;;
8419;SDS011;4247;48.550;8.822;2024-03-07T03:23:08;38.03;;;20.77;;
8419;SDS011;4247;48.550;8.822;2024-03-07T03:25:38;32.70;;;18.33;;
8419;SDS011;4247;48.550;8.822;2024-03-07T03:28:05;33.73;;;19.43;;
8419;SDS011;4247;48.550;8.822;2024-03-07T03:30:36;34.30;;;19.87;;
8419;SDS011;4247;48.550;8.822;2024-03-07T03:33:03;35.57;;;18.40;;
8419;SDS011;4247;48.550;8.822;2024-03-07T03:35:30;33.30;;;18.30;;
8419;SDS011;4247;48.550;8.822;2024-03-07T03:37:57;36.30;;;20.00;;
8419;SDS011;4247;48.550;8.822;2024-03-07T03:40:24;45.50;;;20.23;;
8419;SDS011;4247;48.550;8.822;2024-03-07T03:42:50;40.07;;;18.97;;
8419;SDS011;4247;48.550;8.822;2024-03-07T03:45:17;38.57;;;19.33;;
8419;SDS011;4247;48.550;8.822;2024-03-07T03:47:46;40.80;;;19.73;;
8419;SDS011;4247;48.550;8.822;2024-03-07T03:50:13;40.10;;;19.57;;
8419;SDS011;4247;48.550;8.822;2024-03-07T03:52:40;36.23;;;20.10;;
8419;SDS011;4247;48.550;8.822;2024-03-07T03:55:07;38.53;;;22.57;;
8419;SDS011;4247;48.550;8.822;2024-03-07T03:57:35;38.83;;;20.30;;
8419;SDS011;4247;48.550;8.822;2024-03-07T04:00:04;41.20;;;19.77;;
8419;SDS011;4247;48.550;8.822;2024-03-07T04:02:37;38.93;;;20.97;;
8419;SDS011;4247;48.550;8.822;2024-03-07T04:05:06;38.27;;;20.33;;
8419;SDS011;4247;48.550;8.822;2024-03-07T04:07:34;38.60;;;20.47;;
8419;SDS011;4247;48.550;8.822;2024-03-07T04:10:01;43.83;;;21.40;;
8419;SDS011;4247;48.550;8.822;2024-03-07T04:12:29;40.33;;;20.97;;
8419;SDS011;4247;48.550;8.822;2024-03-07T04:14:56;42.90;;;21.80;;
8419;SDS011;4247;48.550;8.822;2024-03-07T04:17:22;43.47;;;21.33;;
8419;SDS011;4247;48.550;8.822;2024-03-07T04:19:50;39.63;;;21.00;;
8419;SDS011;4247;48.550;8.822;2024-03-07T04:22:18;46.67;;;22.87;;
8419;SDS011;4247;48.550;8.822;2024-03-07T04:24:45;38.63;;;20.20;;
8419;SDS011;4247;48.550;8.822;2024-03-07T04:27:18;41.73;;;21.17;;
8419;SDS011;4247;48.550;8.822;2024-03-07T04:29:45;40.40;;;21.50;;
8419;SDS011;4247;48.550;8.822;2024-03-07T04:32:14;45.37;;;22.23;;
8419;SDS011;4247;48.550;8.822;2024-03-07T04:34:42;39.77;;;22.77;;
8419;SDS011;4247;48.550;8.822;2024-03-07T04:37:09;44.57;;;22.03;;
8419;SDS011;4247;48.550;8.822;2024-03-07T04:39:37;42.87;;;22.00;;
8419;SDS011;4247;48.550;8.822;2024-03-07T04:42:04;35.53;;;21.80;;
8419;SDS011;4247;48.550;8.822;2024-03-07T04:44:32;40.33;;;22.93;;
8419;SDS011;4247;48.550;8.822;2024-03-07T04:47:01;40.87;;;22.23;;
8419;SDS011;4247;48.550;8.822;2024-03-07T04:49:29;42.10;;;21.37;;
8419;SDS011;4247;48.550;8.822;2024-03-07T04:51:58;36.70;;;20.70;;
8419;SDS011;4247;48.550;8.822;2024-03-07T04:54:26;42.80;;;22.80;;
8419;SDS011;4247;48.550;8.822;2024-03-07T04:56:55;47.13;;;22.47;;
8419;SDS011;4247;48.550;8.822;2024-03-07T04:59:22;43.67;;;21.03;;
8419;SDS011;4247;48.550;8.822;2024-03-07T05:01:49;42.10;;;22.00;;
8419;SDS011;4247;48.550;8.822;2024-03-07T05:04:16;42.73;;;21.17;;
8419;SDS011;4247;48.550;8.822;2024-03-07T05:06:44;44.73;;;22.43;;
8419;SDS011;4247;48.550;8.822;2024-03-07T05:09:13;48.30;;;23.53;;
8419;SDS011;4247;48.550;8.822;2024-03-07T05:11:48;39.87;;;22.83;;
8419;SDS011;4247;48.550;8.822;2024-03-07T05:14:18;46.03;;;22.47;;
8419;SDS011;4247;48.550;8.822;2024-03-07T05:16:45;42.90;;;23.47;;
8419;SDS011;4247;48.550;8.822;2024-03-07T05:19:26;35.87;;;20.23;;
8419;SDS011;4247;48.550;8.822;2024-03-07T05:21:54;42.53;;;22.17;;
8419;SDS011;4247;48.550;8.822;2024-03-07T05:24:21;49.33;;;24.37;;
8419;SDS011;4247;48.550;8.822;2024-03-07T05:26:48;39.27;;;21.73;;
8419;SDS011;4247;48.550;8.822;2024-03-07T05:29:15;38.17;;;21.57;;
8419;SDS011;4247;48.550;8.822;2024-03-07T05:31:44;45.33;;;22.67;;
8419;SDS011;4247;48.550;8.822;2024-03-07T05:34:12;44.17;;;22.47;;
8419;SDS011;4247;48.550;8.822;2024-03-07T05:36:39;43.13;;;22.40;;
8419;SDS011;4247;48.550;8.822;2024-03-07T05:39:09;44.07;;;23.30;;
8419;SDS011;4247;48.550;8.822;2024-03-07T05:41:36;46.80;;;23.03;;
8419;SDS011;4247;48.550;8.822;2024-03-07T05:44:03;48.77;;;26.43;;
8419;SDS011;4247;48.550;8.822;2024-03-07T05:46:33;41.17;;;22.63;;
8419;SDS011;4247;48.550;8.822;2024-03-07T05:49:03;42.77;;;24.30;;
8419;SDS011;4247;48.550;8.822;2024-03-07T05:51:30;42.13;;;22.47;;
8419;SDS011;4247;48.550;8.822;2024-03-07T05:53:57;51.00;;;26.17;;
8419;SDS011;4247;48.550;8.822;2024-03-07T05:56:24;45.30;;;22.63;;
8419;SDS011;4247;48.550;8.822;2024-03-07T05:58:50;46.00;;;24.07;;
8419;SDS011;4247;48.550;8.822;2024-03-07T06:01:17;48.93;;;25.07;;
8419;SDS011;4247;48.550;8.822;2024-03-07T06:03:44;47.63;;;23.60;;
8419;SDS011;4247;48.550;8.822;2024-03-07T06:06:15;48.50;;;25.53;;
8419;SDS011;4247;48.550;8.822;2024-03-07T06:08:41;49.37;;;24.90;;
8419;SDS011;4247;48.550;8.822;2024-03-07T06:11:09;45.87;;;24.07;;
8419;SDS011;4247;48.550;8.822;2024-03-07T06:13:38;47.33;;;24.33;;
8419;SDS011;4247;48.550;8.822;2024-03-07T06:16:05;49.40;;;23.87;;
8419;SDS011;4247;48.550;8.822;2024-03-07T06:18:33;48.67;;;24.20;;
8419;SDS011;4247;48.550;8.822;2024-03-07T06:21:00;45.40;;;24.80;;
8419;SDS011;4247;48.550;8.822;2024-03-07T06:23:30;47.90;;;24.27;;
8419;SDS011;4247;48.550;8.822;2024-03-07T06:25:57;48.27;;;24.00;;
8419;SDS011;4247;48.550;8.822;2024-03-07T06:28:24;46.07;;;24.90;;
8419;SDS011;4247;48.550;8.822;2024-03-07T06:30:53;46.03;;;24.03;;
8419;SDS011;4247;48.550;8.822;2024-03-07T06:33:21;50.43;;;25.57;;
8419;SDS011;4247;48.550;8.822;2024-03-07T06:35:47;43.30;;;24.47;;
8419;SDS011;4247;48.550;8.822;2024-03-07T06:38:14;56.67;;;25.20;;
8419;SDS011;4247;48.550;8.822;2024-03-07T06:40:42;46.97;;;23.50;;
8419;SDS011;4247;48.550;8.822;2024-03-07T06:43:09;39.83;;;21.73;;
8419;SDS011;4247;48.550;8.822;2024-03-07T06:45:36;44.97;;;23.73;;
8419;SDS011;4247;48.550;8.822;2024-03-07T06:48:03;44.53;;;23.17;;
8419;SDS011;4247;48.550;8.822;2024-03-07T06:50:32;41.03;;;23.03;;
8419;SDS011;4247;48.550;8.822;2024-03-07T06:52:59;43.60;;;23.33;;
8419;SDS011;4247;48.550;8.822;2024-03-07T06:55:25;45.40;;;23.30;;
8419;SDS011;4247;48.550;8.822;2024-03-07T06:57:53;41.50;;;22.83;;
8419;SDS011;4247;48.550;8.822;2024-03-07T07:00:20;42.50;;;23.30;;
8419;SDS011;4247;48.550;8.822;2024-03-07T07:02:47;48.73;;;22.87;;
8419;SDS011;4247;48.550;8.822;2024-03-07T07:05:15;46.50;;;23.07;;
8419;SDS011;4247;48.550;8.822;2024-03-07T07:07:43;43.30;;;21.83;;
8419;SDS011;4247;48.550;8.822;2024-03-07T07:10:10;43.63;;;23.90;;
8419;SDS011;4247;48.550;8.822;2024-03-07T07:12:41;46.40;;;23.20;;
8419;SDS011;4247;48.550;8.822;2024-03-07T07:15:09;39.93;;;21.47;;
8419;SDS011;4247;48.550;8.822;2024-03-07T07:17:37;41.97;;;21.80;;
8419;SDS011;4247;48.550;8.822;2024-03-07T07:20:04;38.07;;;21.30;;
8419;SDS011;4247;48.550;8.822;2024-03-07T07:22:35;40.93;;;20.23;;
8419;SDS011;4247;48.550;8.822;2024-03-07T07:25:02;40.07;;;21.23;;
8419;SDS011;4247;48.550;8.822;2024-03-07T07:27:29;42.50;;;20.53;;
8419;SDS011;4247;48.550;8.822;2024-03-07T07:29:56;38.90;;;21.17;;
8419;SDS011;4247;48.550;8.822;2024-03-07T07:32:24;44.57;;;22.40;;
8419;SDS011;4247;48.550;8.822;2024-03-07T07:34:51;35.37;;;20.70;;
8419;SDS011;4247;48.550;8.822;2024-03-07T07:37:17;39.43;;;20.60;;
8419;SDS011;4247;48.550;8.822;2024-03-07T07:39:44;35.03;;;19.23;;
8419;SDS011;4247;48.550;8.822;2024-03-07T07:42:11;33.00;;;18.03;;
8419;SDS011;4247;48.550;8.822;2024-03-07T07:44:38;34.50;;;18.47;;
8419;SDS011;4247;48.550;8.822;2024-03-07T07:47:04;38.90;;;20.80;;
8419;SDS011;4247;48.550;8.822;2024-03-07T07:49:33;38.93;;;21.13;;
8419;SDS011;4247;48.550;8.822;2024-03-07T07:52:00;38.87;;;19.47;;
8419;SDS011;4247;48.550;8.822;2024-03-07T07:54:27;36.37;;;19.67;;
8419;SDS011;4247;48.550;8.822;2024-03-07T07:56:54;36.60;;;19.27;;
8419;SDS011;4247;48.550;8.822;2024-03-07T07:59:20;40.13;;;20.10;;
8419;SDS011;4247;48.550;8.822;2024-03-07T08:01:47;39.70;;;20.20;;
8419;SDS011;4247;48.550;8.822;2024-03-07T08:04:15;33.13;;;19.13;;
8419;SDS011;4247;48.550;8.822;2024-03-07T08:06:43;34.50;;;19.57;;
8419;SDS011;4247;48.550;8.822;2024-03-07T08:09:10;35.63;;;19.37;;
8419;SDS011;4247;48.550;8.822;2024-03-07T08:11:41;36.63;;;18.80;;
8419;SDS011;4247;48.550;8.822;2024-03-07T08:14:08;34.03;;;20.37;;
8419;SDS011;4247;48.550;8.822;2024-03-07T08:16:34;38.23;;;19.63;;
8419;SDS011;4247;48.550;8.822;2024-03-07T08:19:01;39.37;;;20.47;;
8419;SDS011;4247;48.550;8.822;2024-03-07T08:21:29;35.13;;;18.73;;
8419;SDS011;4247;48.550;8.822;2024-03-07T08:23:58;41.43;;;19.57;;
8419;SDS011;4247;48.550;8.822;2024-03-07T08:26:28;33.33;;;18.63;;
8419;SDS011;4247;48.550;8.822;2024-03-07T08:28:55;38.53;;;18.67;;
8419;SDS011;4247;48.550;8.822;2024-03-07T08:31:21;32.67;;;18.37;;
8419;SDS011;4247;48.550;8.822;2024-03-07T08:33:48;35.07;;;18.57;;
8419;SDS011;4247;48.550;8.822;2024-03-07T08:36:15;41.47;;;21.73;;
8419;SDS011;4247;48.550;8.822;2024-03-07T08:38:41;36.43;;;19.47;;
8419;SDS011;4247;48.550;8.822;2024-03-07T08:41:12;32.30;;;19.47;;
8419;SDS011;4247;48.550;8.822;2024-03-07T08:43:39;33.03;;;20.47;;
8419;SDS011;4247;48.550;8.822;2024-03-07T08:46:06;33.47;;;19.87;;
8419;SDS011;4247;48.550;8.822;2024-03-07T08:48:33;38.27;;;21.07;;
8419;SDS011;4247;48.550;8.822;2024-03-07T08:51:00;38.57;;;20.13;;
8419;SDS011;4247;48.550;8.822;2024-03-07T08:53:27;34.53;;;19.07;;
8419;SDS011;4247;48.550;8.822;2024-03-07T08:55:53;37.87;;;20.17;;
8419;SDS011;4247;48.550;8.822;2024-03-07T08:58:21;34.47;;;18.53;;
8419;SDS011;4247;48.550;8.822;2024-03-07T09:00:49;43.87;;;21.57;;
8419;SDS011;4247;48.550;8.822;2024-03-07T09:03:17;38.03;;;19.67;;
8419;SDS011;4247;48.550;8.822;2024-03-07T09:05:46;36.87;;;20.17;;
8419;SDS011;4247;48.550;8.822;2024-03-07T09:08:13;38.00;;;20.30;;
8419;SDS011;4247;48.550;8.822;2024-03-07T09:10:40;34.63;;;18.77;;
8419;SDS011;4247;48.550;8.822;2024-03-07T09:13:07;36.90;;;19.30;;
8419;SDS011;4247;48.550;8.822;2024-03-07T09:15:36;37.40;;;18.37;;
8419;SDS011;4247;48.550;8.822;2024-03-07T09:18:03;36.23;;;18.30;;
8419;SDS011;4247;48.550;8.822;2024-03-07T09:20:31;43.90;;;21.17;;
8419;SDS011;4247;48.550;8.822;2024-03-07T09:22:57;39.10;;;19.30;;
8419;SDS011;4247;48.550;8.822;2024-03-07T09:25:25;35.20;;;18.60;;
8419;SDS011;4247;48.550;8.822;2024-03-07T09:27:52;31.87;;;17.87;;
8419;SDS011;4247;48.550;8.822;2024-03-07T09:30:19;35.67;;;18.63;;
8419;SDS011;4247;48.550;8.822;2024-03-07T09:32:51;40.43;;;20.63;;
8419;SDS011;4247;48.550;8.822;2024-03-07T09:35:20;36.90;;;18.83;;
8419;SDS011;4247;48.550;8.822;2024-03-07T09:37:47;37.53;;;18.70;;
8419;SDS011;4247;48.550;8.822;2024-03-07T09:40:13;38.77;;;21.07;;
8419;SDS011;4247;48.550;8.822;2024-03-07T09:42:41;37.00;;;19.10;;
8419;SDS011;4247;48.550;8.822;2024-03-07T09:45:16;36.13;;;20.43;;
8419;SDS011;4247;48.550;8.822;2024-03-07T09:47:44;37.70;;;18.80;;
8419;SDS011;4247;48.550;8.822;2024-03-07T09:50:15;35.10;;;18.83;;
8419;SDS011;4247;48.550;8.822;2024-03-07T09:52:44;36.27;;;19.87;;
8419;SDS011;4247;48.550;8.822;2024-03-07T09:55:14;42.17;;;20.00;;
8419;SDS011;4247;48.550;8.822;2024-03-07T09:57:42;35.87;;;19.33;;
8419;SDS011;4247;48.550;8.822;2024-03-07T10:00:11;40.17;;;19.07;;
8419;SDS011;4247;48.550;8.822;2024-03-07T10:02:47;39.67;;;19.63;;
8419;SDS011;4247;48.550;8.822;2024-03-07T10:05:18;40.13;;;20.00;;
8419;SDS011;4247;48.550;8.822;2024-03-07T10:07:45;39.23;;;21.93;;
8419;SDS011;4247;48.550;8.822;2024-03-07T10:10:12;48.20;;;21.43;;
8419;SDS011;4247;48.550;8.822;2024-03-07T10:12:39;41.53;;;19.37;;
8419;SDS011;4247;48.550;8.822;2024-03-07T10:15:06;39.87;;;21.00;;
8419;SDS011;4247;48.550;8.822;2024-03-07T10:17:35;41.23;;;20.50;;
8419;SDS011;4247;48.550;8.822;2024-03-07T10:20:03;40.20;;;19.23;;
8419;SDS011;4247;48.550;8.822;2024-03-07T10:22:36;40.77;;;19.97;;
8419;SDS011;4247;48.550;8.822;2024-03-07T10:25:03;42.43;;;20.30;;
8419;SDS011;4247;48.550;8.822;2024-03-07T10:27:30;41.73;;;20.20;;
8419;SDS011;4247;48.550;8.822;2024-03-07T10:29:57;44.33;;;21.00;;
8419;SDS011;4247;48.550;8.822;2024-03-07T10:32:24;41.60;;;19.33;;
8419;SDS011;4247;48.550;8.822;2024-03-07T10:34:52;39.07;;;20.83;;
8419;SDS011;4247;48.550;8.822;2024-03-07T10:37:19;39.73;;;19.50;;
8419;SDS011;4247;48.550;8.822;2024-03-07T10:39:48;46.40;;;21.10;;
8419;SDS011;4247;48.550;8.822;2024-03-07T10:42:15;40.73;;;19.67;;
8419;SDS011;4247;48.550;8.822;2024-03-07T10:44:44;40.43;;;20.17;;
8419;SDS011;4247;48.550;8.822;2024-03-07T10:47:15;37.53;;;20.73;;
8419;SDS011;4247;48.550;8.822;2024-03-07T10:49:46;40.90;;;19.67;;
8419;SDS011;4247;48.550;8.822;2024-03-07T10:52:23;39.07;;;20.07;;
8419;SDS011;4247;48.550;8.822;2024-03-07T10:54:59;42.13;;;21.73;;
8419;SDS011;4247;48.550;8.822;2024-03-07T10:57:39;49.33;;;21.27;;
8419;SDS011;4247;48.550;8.822;2024-03-07T11:00:15;40.40;;;19.33;;
8419;SDS011;4247;48.550;8.822;2024-03-07T11:03:00;43.30;;;20.87;;
8419;SDS011;4247;48.550;8.822;2024-03-07T11:05:32;44.23;;;21.50;;
8419;SDS011;4247;48.550;8.822;2024-03-07T11:07:59;37.90;;;19.73;;
8419;SDS011;4247;48.550;8.822;2024-03-07T11:10:30;47.60;;;19.57;;
8419;SDS011;4247;48.550;8.822;2024-03-07T11:12:57;36.77;;;19.60;;
8419;SDS011;4247;48.550;8.822;2024-03-07T11:15:24;38.10;;;21.10;;
8419;SDS011;4247;48.550;8.822;2024-03-07T11:17:52;41.60;;;19.23;;
8419;SDS011;4247;48.550;8.822;2024-03-07T11:20:20;35.80;;;19.70;;
8419;SDS011;4247;48.550;8.822;2024-03-07T11:22:48;44.83;;;20.63;;
8419;SDS011;4247;48.550;8.822;2024-03-07T11:25:17;37.83;;;19.80;;
8419;SDS011;4247;48.550;8.822;2024-03-07T11:27:51;43.73;;;20.23;;
8419;SDS011;4247;48.550;8.822;2024-03-07T11:30:20;43.47;;;20.20;;
8419;SDS011;4247;48.550;8.822;2024-03-07T11:32:48;40.87;;;19.47;;
8419;SDS011;4247;48.550;8.822;2024-03-07T11:35:18;41.57;;;21.13;;
8419;SDS011;4247;48.550;8.822;2024-03-07T11:37:50;42.57;;;20.33;;
8419;SDS011;4247;48.550;8.822;2024-03-07T11:43:15;39.60;;;20.33;;
8419;SDS011;4247;48.550;8.822;2024-03-07T11:45:42;40.83;;;18.57;;
8419;SDS011;4247;48.550;8.822;2024-03-07T11:48:17;39.30;;;18.50;;
8419;SDS011;4247;48.550;8.822;2024-03-07T11:50:45;33.23;;;18.17;;
8419;SDS011;4247;48.550;8.822;2024-03-07T11:53:12;33.83;;;18.63;;
8419;SDS011;4247;48.550;8.822;2024-03-07T11:55:39;52.80;;;20.17;;
8419;SDS011;4247;48.550;8.822;2024-03-07T11:58:10;40.37;;;19.57;;
8419;SDS011;4247;48.550;8.822;2024-03-07T12:00:42;36.10;;;19.27;;
8419;SDS011;4247;48.550;8.822;2024-03-07T12:03:11;33.37;;;17.77;;
8419;SDS011;4247;48.550;8.822;2024-03-07T12:05:42;41.07;;;18.20;;
8419;SDS011;4247;48.550;8.822;2024-03-07T12:08:09;31.83;;;17.43;;
8419;SDS011;4247;48.550;8.822;2024-03-07T12:10:37;44.03;;;19.80;;
8419;SDS011;4247;48.550;8.822;2024-03-07T12:13:05;50.67;;;25.13;;
8419;SDS011;4247;48.550;8.822;2024-03-07T12:15:33;37.63;;;18.73;;
8419;SDS011;4247;48.550;8.822;2024-03-07T12:18:01;37.20;;;18.83;;
8419;SDS011;4247;48.550;8.822;2024-03-07T12:20:34;39.67;;;18.13;;
8419;SDS011;4247;48.550;8.822;2024-03-07T12:23:01;42.60;;;18.07;;
8419;SDS011;4247;48.550;8.822;2024-03-07T12:25:30;33.63;;;17.60;;
8419;SDS011;4247;48.550;8.822;2024-03-07T12:28:01;32.90;;;17.87;;
8419;SDS011;4247;48.550;8.822;2024-03-07T12:30:31;33.03;;;17.50;;
8419;SDS011;4247;48.550;8.822;2024-03-07T12:33:00;38.17;;;17.93;;
8419;SDS011;4247;48.550;8.822;2024-03-07T12:35:29;37.53;;;18.57;;
8419;SDS011;4247;48.550;8.822;2024-03-07T12:37:56;31.40;;;16.73;;
8419;SDS011;4247;48.550;8.822;2024-03-07T12:40:23;40.67;;;17.20;;
8419;SDS011;4247;48.550;8.822;2024-03-07T12:42:54;40.90;;;17.67;;
8419;SDS011;4247;48.550;8.822;2024-03-07T12:45:20;34.80;;;15.97;;
8419;SDS011;4247;48.550;8.822;2024-03-07T12:47:47;27.70;;;16.00;;
8419;SDS011;4247;48.550;8.822;2024-03-07T12:50:18;33.93;;;17.37;;
8419;SDS011;4247;48.550;8.822;2024-03-07T12:52:45;38.33;;;16.13;;
8419;SDS011;4247;48.550;8.822;2024-03-07T12:55:14;31.33;;;16.23;;
8419;SDS011;4247;48.550;8.822;2024-03-07T12:57:43;34.93;;;18.43;;
8419;SDS011;4247;48.550;8.822;2024-03-07T13:00:10;31.47;;;16.60;;
8419;SDS011;4247;48.550;8.822;2024-03-07T13:02:44;31.37;;;15.77;;
8419;SDS011;4247;48.550;8.822;2024-03-07T13:05:12;32.40;;;16.30;;
8419;SDS011;4247;48.550;8.822;2024-03-07T13:07:44;34.03;;;15.53;;
8419;SDS011;4247;48.550;8.822;2024-03-07T13:10:12;32.90;;;16.57;;
8419;SDS011;4247;48.550;8.822;2024-03-07T13:12:40;30.03;;;15.63;;
8419;SDS011;4247;48.550;8.822;2024-03-07T13:15:08;28.30;;;15.17;;
8419;SDS011;4247;48.550;8.822;2024-03-07T13:17:36;32.27;;;15.03;;
8419;SDS011;4247;48.550;8.822;2024-03-07T13:20:03;28.30;;;15.13;;
8419;SDS011;4247;48.550;8.822;2024-03-07T13:22:36;27.43;;;14.27;;
8419;SDS011;4247;48.550;8.822;2024-03-07T13:25:05;30.27;;;15.30;;
8419;SDS011;4247;48.550;8.822;2024-03-07T13:27:39;29.07;;;15.03;;
8419;SDS011;4247;48.550;8.822;2024-03-07T13:30:11;27.40;;;14.73;;
8419;SDS011;4247;48.550;8.822;2024-03-07T13:32:48;26.27;;;13.50;;
8419;SDS011;4247;48.550;8.822;2024-03-07T13:35:17;31.40;;;17.57;;
8419;SDS011;4247;48.550;8.822;2024-03-07T13:37:45;27.10;;;15.07;;
8419;SDS011;4247;48.550;8.822;2024-03-07T13:40:14;34.57;;;17.17;;
8419;SDS011;4247;48.550;8.822;2024-03-07T13:42:50;30.67;;;15.40;;
8419;SDS011;4247;48.550;8.822;2024-03-07T13:45:19;33.60;;;16.87;;
8419;SDS011;4247;48.550;8.822;2024-03-07T13:47:47;24.80;;;14.10;;
8419;SDS011;4247;48.550;8.822;2024-03-07T13:50:15;30.40;;;15.30;;
8419;SDS011;4247;48.550;8.822;2024-03-07T13:52:44;29.03;;;16.83;;
8419;SDS011;4247;48.550;8.822;2024-03-07T13:55:31;30.47;;;15.27;;
8419;SDS011;4247;48.550;8.822;2024-03-07T13:58:02;31.90;;;16.93;;
8419;SDS011;4247;48.550;8.822;2024-03-07T14:00:39;34.33;;;16.50;;
8419;SDS011;4247;48.550;8.822;2024-03-07T14:03:16;30.20;;;15.47;;
8419;SDS011;4247;48.550;8.822;2024-03-07T14:05:56;26.83;;;15.20;;
8419;SDS011;4247;48.550;8.822;2024-03-07T14:08:35;28.67;;;15.47;;
8419;SDS011;4247;48.550;8.822;2024-03-07T14:11:32;29.70;;;15.17;;
8419;SDS011;4247;48.550;8.822;2024-03-07T14:14:30;29.30;;;15.33;;
8419;SDS011;4247;48.550;8.822;2024-03-07T14:17:33;28.50;;;14.80;;
8419;SDS011;4247;48.550;8.822;2024-03-07T14:23:33;29.73;;;15.80;;
8419;SDS011;4247;48.550;8.822;2024-03-07T14:26:38;29.30;;;15.40;;
8419;SDS011;4247;48.550;8.822;2024-03-07T14:29:22;35.30;;;17.97;;
8419;SDS011;4247;48.550;8.822;2024-03-07T14:31:57;31.20;;;16.43;;
8419;SDS011;4247;48.550;8.822;2024-03-07T14:34:37;31.73;;;15.03;;
8419;SDS011;4247;48.550;8.822;2024-03-07T14:37:17;33.27;;;17.27;;
8419;SDS011;4247;48.550;8.822;2024-03-07T14:39:49;33.90;;;16.93;;
8419;SDS011;4247;48.550;8.822;2024-03-07T14:42:19;31.97;;;16.80;;
8419;SDS011;4247;48.550;8.822;2024-03-07T14:44:46;31.53;;;15.77;;
8419;SDS011;4247;48.550;8.822;2024-03-07T14:47:13;34.93;;;18.10;;
8419;SDS011;4247;48.550;8.822;2024-03-07T14:49:45;32.83;;;17.93;;
8419;SDS011;4247;48.550;8.822;2024-03-07T14:52:11;33.37;;;17.33;;
8419;SDS011;4247;48.550;8.822;2024-03-07T14:54:40;35.80;;;18.83;;
8419;SDS011;4247;48.550;8.822;2024-03-07T14:57:08;36.10;;;17.87;;
8419;SDS011;4247;48.550;8.822;2024-03-07T14:59:37;40.23;;;18.33;;
8419;SDS011;4247;48.550;8.822;2024-03-07T15:02:05;40.40;;;20.13;;
8419;SDS011;4247;48.550;8.822;2024-03-07T15:04:35;44.07;;;20.83;;